createdAt,value
2022-10-11T00:02:09.751Z,13.54
2022-10-11T00:05:11.701Z,13.43
2022-10-11T00:08:13.583Z,13.37
2022-10-11T00:11:15.233Z,13.31
2022-10-11T00:14:16.700Z,13.23
2022-10-11T00:17:18.174Z,13.19
2022-10-11T00:20:20.020Z,13.15
2022-10-11T00:23:21.548Z,13.08
2022-10-11T00:26:23.072Z,12.99
2022-10-11T00:29:24.586Z,12.95
2022-10-11T00:32:26.315Z,12.83
2022-10-11T00:35:27.826Z,12.83
2022-10-11T00:38:31.859Z,12.82
2022-10-11T00:41:33.672Z,12.79
2022-10-11T00:44:35.348Z,12.74
2022-10-11T00:47:36.877Z,12.70
2022-10-11T00:50:38.390Z,12.69
2022-10-11T00:53:41.058Z,12.64
2022-10-11T00:56:45.355Z,12.64
2022-10-11T00:59:50.983Z,12.66
2022-10-11T01:02:52.728Z,12.64
2022-10-11T01:05:55.050Z,12.61
2022-10-11T01:08:56.825Z,12.56
2022-10-11T01:12:01.063Z,12.52
2022-10-11T01:15:17.747Z,12.48
2022-10-11T01:18:35.513Z,12.45
2022-10-11T01:21:52.619Z,12.46
2022-10-11T01:25:24.467Z,12.54
2022-10-11T01:28:59.916Z,12.57
2022-10-11T01:32:24.586Z,12.63
2022-10-11T01:35:25.957Z,12.65
2022-10-11T01:38:42.652Z,12.63
2022-10-11T01:41:49.459Z,12.66
2022-10-11T01:44:52.010Z,12.68
2022-10-11T01:48:08.759Z,12.72
2022-10-11T01:51:10.524Z,12.76
2022-10-11T01:55:08.017Z,12.78
2022-10-11T01:58:37.666Z,12.74
2022-10-11T02:01:49.600Z,12.71
2022-10-11T02:05:11.901Z,12.74
2022-10-11T02:08:31.924Z,12.81
2022-10-11T02:11:36.308Z,12.84
2022-10-11T02:14:44.359Z,12.78
2022-10-11T02:17:52.420Z,12.74
2022-10-11T02:20:57.264Z,12.73
2022-10-11T02:24:08.873Z,12.75
2022-10-11T02:27:12.433Z,12.78
2022-10-11T02:30:15.151Z,12.76
2022-10-11T02:33:21.684Z,12.82
2022-10-11T02:36:31.139Z,12.82
2022-10-11T02:39:37.341Z,12.81
2022-10-11T02:42:44.553Z,12.80
2022-10-11T02:45:57.237Z,12.78
2022-10-11T02:49:00.342Z,12.74
2022-10-11T02:52:04.856Z,12.71
2022-10-11T02:55:07.604Z,12.71
2022-10-11T02:58:09.084Z,12.70
2022-10-11T03:01:10.727Z,12.68
2022-10-11T03:04:12.240Z,12.70
2022-10-11T03:07:14.667Z,12.70
2022-10-11T03:10:16.473Z,12.69
2022-10-11T03:13:18.587Z,12.69
2022-10-11T03:16:20.172Z,12.55
2022-10-11T03:19:21.681Z,12.38
2022-10-11T03:22:23.320Z,12.40
2022-10-11T03:25:24.835Z,12.43
2022-10-11T03:28:26.364Z,12.48
2022-10-11T03:31:27.920Z,12.50
2022-10-11T03:34:32.742Z,12.52
2022-10-11T03:37:34.378Z,12.48
2022-10-11T03:40:35.860Z,12.41
2022-10-11T03:43:37.343Z,12.39
2022-10-11T03:46:38.797Z,12.32
2022-10-11T03:49:43.570Z,12.25
2022-10-11T03:52:45.540Z,12.19
2022-10-11T03:55:51.560Z,12.12
2022-10-11T03:58:53.070Z,12.06
2022-10-11T04:01:54.749Z,11.98
2022-10-11T04:04:56.373Z,11.93
2022-10-11T04:07:57.917Z,11.86
2022-10-11T04:10:59.485Z,11.78
2022-10-11T04:14:01.040Z,11.74
2022-10-11T04:17:02.541Z,11.70
2022-10-11T04:20:04.537Z,11.63
2022-10-11T04:23:06.181Z,11.58
2022-10-11T04:26:09.034Z,11.55
2022-10-11T04:29:10.741Z,11.50
2022-10-11T04:32:12.220Z,11.47
2022-10-11T04:35:13.903Z,11.41
2022-10-11T04:38:15.636Z,11.38
2022-10-11T04:41:17.258Z,11.35
2022-10-11T04:44:18.727Z,11.28
2022-10-11T04:47:20.241Z,11.22
2022-10-11T04:50:21.976Z,11.16
2022-10-11T04:53:23.500Z,11.16
2022-10-11T04:56:24.939Z,11.10
2022-10-11T04:59:26.633Z,11.05
2022-10-11T05:02:28.217Z,11.01
2022-10-11T05:05:34.581Z,10.94
2022-10-11T05:08:36.239Z,10.98
2022-10-11T05:11:37.764Z,10.96
2022-10-11T05:14:39.243Z,10.90
2022-10-11T05:17:40.716Z,10.86
2022-10-11T05:20:42.300Z,10.86
2022-10-11T05:23:44.075Z,10.85
2022-10-11T05:26:45.704Z,10.76
2022-10-11T05:29:47.187Z,10.73
2022-10-11T05:32:48.614Z,10.70
2022-10-11T05:35:50.100Z,10.70
2022-10-11T05:38:54.481Z,10.71
2022-10-11T05:41:56.147Z,10.73
2022-10-11T05:44:57.586Z,10.73
2022-10-11T05:47:59.307Z,10.73
2022-10-11T05:51:05.641Z,10.75
2022-10-11T05:54:07.152Z,10.78
2022-10-11T05:57:08.665Z,10.82
2022-10-11T06:00:10.833Z,10.88
2022-10-11T06:03:18.209Z,10.95
2022-10-11T06:06:20.473Z,11.04
2022-10-11T06:09:22.013Z,11.11
2022-10-11T06:12:23.533Z,11.30
2022-10-11T06:15:25.180Z,11.43
2022-10-11T06:18:26.639Z,11.52
2022-10-11T06:21:28.105Z,11.54
2022-10-11T06:24:29.554Z,11.63
2022-10-11T06:27:31.004Z,11.68
2022-10-11T06:30:32.485Z,11.78
2022-10-11T06:33:35.085Z,11.92
2022-10-11T06:36:36.579Z,12.06
2022-10-11T06:39:38.250Z,12.20
2022-10-11T06:42:39.785Z,12.34
2022-10-11T06:45:41.637Z,12.42
2022-10-11T06:48:44.926Z,12.55
2022-10-11T06:51:46.431Z,12.59
2022-10-11T06:54:47.962Z,12.69
2022-10-11T06:57:49.453Z,12.80
2022-10-11T07:00:50.999Z,12.90
2022-10-11T07:03:54.755Z,12.96
2022-10-11T07:06:56.245Z,13.01
2022-10-11T07:09:57.759Z,13.08
2022-10-11T07:12:59.235Z,13.16
2022-10-11T07:16:02.741Z,13.24
2022-10-11T07:19:06.451Z,13.26
2022-10-11T07:22:08.030Z,13.39
2022-10-11T07:25:09.669Z,13.53
2022-10-11T07:28:11.602Z,13.64
2022-10-11T07:31:18.098Z,13.77
2022-10-11T07:34:20.615Z,13.89
2022-10-11T07:37:22.132Z,14.05
2022-10-11T07:40:23.661Z,14.21
2022-10-11T07:43:25.244Z,14.31
2022-10-11T07:46:26.773Z,14.35
2022-10-11T07:49:28.244Z,14.36
2022-10-11T07:52:29.753Z,14.37
2022-10-11T07:55:34.795Z,14.31
2022-10-11T07:58:36.337Z,14.34
2022-10-11T08:01:37.969Z,14.39
2022-10-11T08:04:40.048Z,14.49
2022-10-11T08:07:41.837Z,14.61
2022-10-11T08:10:43.323Z,14.81
2022-10-11T08:13:44.861Z,14.98
2022-10-11T08:16:46.364Z,15.20
2022-10-11T08:19:47.899Z,15.23
2022-10-11T08:22:49.427Z,15.34
2022-10-11T08:25:56.488Z,15.46
2022-10-11T08:28:59.599Z,15.58
2022-10-11T08:32:01.328Z,15.59
2022-10-11T08:35:02.862Z,15.60
2022-10-11T08:38:04.357Z,15.67
2022-10-11T08:41:34.088Z,15.85
2022-10-11T08:45:09.386Z,15.71
2022-10-11T08:48:21.421Z,15.52
2022-10-11T08:51:29.256Z,15.76
2022-10-11T08:54:57.689Z,16.19
2022-10-11T08:57:59.586Z,16.37
2022-10-11T09:01:02.372Z,16.32
2022-10-11T09:04:06.081Z,16.35
2022-10-11T09:07:21.599Z,16.55
2022-10-11T09:10:54.016Z,16.53
2022-10-11T09:14:10.907Z,16.40
2022-10-11T09:17:27.845Z,16.32
2022-10-11T09:20:38.518Z,16.28
2022-10-11T09:23:48.758Z,16.15
2022-10-11T09:26:57.432Z,16.02
2022-10-11T09:30:16.130Z,15.98
2022-10-11T09:33:45.211Z,16.00
2022-10-11T09:36:54.295Z,15.92
2022-10-11T09:40:06.901Z,15.97
2022-10-11T09:43:39.857Z,15.81
2022-10-11T09:46:42.255Z,15.84
2022-10-11T09:49:52.785Z,16.01
2022-10-11T09:52:57.258Z,16.35
2022-10-11T09:56:04.151Z,16.35
2022-10-11T09:59:18.998Z,16.57
2022-10-11T10:02:23.704Z,16.46
2022-10-11T10:05:27.866Z,16.48
2022-10-11T10:08:29.337Z,16.68
2022-10-11T10:11:36.774Z,17.00
2022-10-11T10:14:39.454Z,17.17
2022-10-11T10:17:49.292Z,16.90
2022-10-11T10:20:53.890Z,16.98
2022-10-11T10:23:57.628Z,17.08
2022-10-11T10:27:11.120Z,16.86
2022-10-11T10:30:19.317Z,16.61
2022-10-11T10:33:23.865Z,16.79
2022-10-11T10:36:46.615Z,16.54
2022-10-11T10:40:13.925Z,16.64
2022-10-11T10:43:18.532Z,16.62
2022-10-11T10:46:57.823Z,16.47
2022-10-11T10:50:18.830Z,16.69
2022-10-11T10:53:29.573Z,16.82
2022-10-11T10:56:40.438Z,16.92
2022-10-11T11:00:20.548Z,16.93
2022-10-11T11:03:31.092Z,16.52
2022-10-11T11:06:44.951Z,16.52
2022-10-11T11:09:53.292Z,16.65
2022-10-11T11:13:29.622Z,16.75
2022-10-11T11:16:31.061Z,16.86
2022-10-11T11:20:03.722Z,16.70
2022-10-11T11:23:30.381Z,16.88
2022-10-11T11:26:50.535Z,16.83
2022-10-11T11:30:08.786Z,16.48
2022-10-11T11:33:10.396Z,16.63
2022-10-11T11:36:18.728Z,17.22
2022-10-11T11:39:49.231Z,17.36
2022-10-11T11:42:53.625Z,17.54
2022-10-11T11:45:59.274Z,17.75
2022-10-11T11:49:12.146Z,17.70
2022-10-11T11:52:26.193Z,17.57
2022-10-11T11:55:33.711Z,17.49
2022-10-11T11:59:10.947Z,17.31
2022-10-11T12:02:35.176Z,17.12
2022-10-11T12:05:37.014Z,16.91
2022-10-11T12:08:40.655Z,17.02
2022-10-11T12:11:48.588Z,16.82
2022-10-11T12:14:51.377Z,16.89
2022-10-11T12:17:59.071Z,17.15
2022-10-11T12:21:06.010Z,17.23
2022-10-11T12:24:22.807Z,17.26
2022-10-11T12:27:36.679Z,16.97
2022-10-11T12:30:44.498Z,16.79
2022-10-11T12:33:45.982Z,16.92
2022-10-11T12:36:50.568Z,16.74
2022-10-11T12:39:57.443Z,16.58
2022-10-11T12:43:14.009Z,16.63
2022-10-11T12:46:33.688Z,16.75
2022-10-11T12:49:47.596Z,16.61
2022-10-11T12:53:10.456Z,16.48
2022-10-11T12:56:26.065Z,16.43
2022-10-11T12:59:27.657Z,16.30
2022-10-11T13:02:39.289Z,16.01
2022-10-11T13:05:49.707Z,16.01
2022-10-11T13:09:03.848Z,16.03
2022-10-11T13:12:07.117Z,15.97
2022-10-11T13:15:16.971Z,16.08
2022-10-11T13:18:21.257Z,16.05
2022-10-11T13:21:32.706Z,15.93
2022-10-11T13:24:39.790Z,15.83
2022-10-11T13:27:41.463Z,15.75
2022-10-11T13:30:46.431Z,15.63
2022-10-11T13:33:48.487Z,15.60
2022-10-11T13:36:55.729Z,15.59
2022-10-11T13:39:57.866Z,15.65
2022-10-11T13:42:59.634Z,15.68
2022-10-11T13:46:04.981Z,15.69
2022-10-11T13:49:26.954Z,15.61
2022-10-11T13:52:28.429Z,15.66
2022-10-11T13:55:33.052Z,15.66
2022-10-11T13:58:44.109Z,15.71
2022-10-11T14:01:46.632Z,15.68
2022-10-11T14:04:48.979Z,15.76
2022-10-11T14:07:50.694Z,15.80
2022-10-11T14:10:56.710Z,15.77
2022-10-11T14:13:58.926Z,15.74
2022-10-11T14:17:12.622Z,15.70
2022-10-11T14:20:22.258Z,15.59
2022-10-11T14:23:23.866Z,15.38
2022-10-11T14:26:32.830Z,15.31
2022-10-11T14:29:35.972Z,15.33
2022-10-11T14:32:37.568Z,15.34
2022-10-11T14:35:43.446Z,15.39
2022-10-11T14:38:47.768Z,15.50
2022-10-11T14:41:50.621Z,15.56
2022-10-11T14:44:52.210Z,15.57
2022-10-11T14:47:53.778Z,15.64
2022-10-11T14:50:59.253Z,15.69
2022-10-11T14:54:00.705Z,15.74
2022-10-11T14:57:03.860Z,15.83
2022-10-11T15:00:22.209Z,15.83
2022-10-11T15:03:23.688Z,15.78
2022-10-11T15:06:32.507Z,15.64
2022-10-11T15:09:34.112Z,15.71
2022-10-11T15:12:35.556Z,15.77
2022-10-11T15:15:40.888Z,15.84
2022-10-11T15:18:43.906Z,15.89
2022-10-11T15:21:46.008Z,15.89
2022-10-11T15:24:51.527Z,15.89
2022-10-11T15:27:53.842Z,15.89
2022-10-11T15:30:55.934Z,15.88
2022-10-11T15:33:59.540Z,15.82
2022-10-11T15:37:01.073Z,15.77
2022-10-11T15:40:02.949Z,15.77
2022-10-11T15:43:04.672Z,15.79
2022-10-11T15:46:06.732Z,15.77
2022-10-11T15:49:13.353Z,15.85
2022-10-11T15:52:14.830Z,15.85
2022-10-11T15:55:17.408Z,15.82
2022-10-11T15:58:25.058Z,15.74
2022-10-11T16:01:27.240Z,15.76
2022-10-11T16:04:28.786Z,15.67
2022-10-11T16:07:30.307Z,15.61
2022-10-11T16:10:31.909Z,15.62
2022-10-11T16:13:34.315Z,15.62
2022-10-11T16:16:35.795Z,15.62
2022-10-11T16:19:37.296Z,15.59
2022-10-11T16:22:39.355Z,15.55
2022-10-11T16:25:42.460Z,15.47
2022-10-11T16:28:44.668Z,15.30
2022-10-11T16:31:46.175Z,15.22
2022-10-11T16:34:47.678Z,15.20
2022-10-11T16:37:50.241Z,15.18
2022-10-11T16:40:51.704Z,15.08
2022-10-11T16:43:56.117Z,14.99
2022-10-11T16:46:57.859Z,14.89
2022-10-11T16:49:59.413Z,14.83
2022-10-11T16:53:00.881Z,14.81
2022-10-11T16:56:09.898Z,14.82
2022-10-11T16:59:12.517Z,14.71
2022-10-11T17:02:17.029Z,14.62
2022-10-11T17:05:18.511Z,14.47
2022-10-11T17:08:20.054Z,14.37
2022-10-11T17:11:22.377Z,14.49
2022-10-11T17:14:23.863Z,14.46
2022-10-11T17:17:25.407Z,14.39
2022-10-11T17:20:26.914Z,14.39
2022-10-11T17:23:28.975Z,14.46
2022-10-11T17:26:30.489Z,14.52
2022-10-11T17:29:32.367Z,14.55
2022-10-11T17:32:33.864Z,14.55
2022-10-11T17:35:35.396Z,14.41
2022-10-11T17:38:36.868Z,14.36
2022-10-11T17:41:38.588Z,14.40
2022-10-11T17:44:41.220Z,14.46
2022-10-11T17:47:42.733Z,14.47
2022-10-11T17:50:49.665Z,14.42
2022-10-11T17:53:52.176Z,14.37
2022-10-11T17:56:54.498Z,14.23
2022-10-11T17:59:58.100Z,14.00
2022-10-11T18:02:59.663Z,14.05
2022-10-11T18:06:09.032Z,14.10
2022-10-11T18:09:11.543Z,14.06
2022-10-11T18:12:12.999Z,14.04
2022-10-11T18:15:14.451Z,14.04
2022-10-11T18:18:18.064Z,14.00
2022-10-11T18:21:19.671Z,14.03
2022-10-11T18:24:21.276Z,14.05
2022-10-11T18:27:22.740Z,14.06
2022-10-11T18:30:24.447Z,14.13
2022-10-11T18:33:27.179Z,14.13
2022-10-11T18:36:30.309Z,14.15
2022-10-11T18:39:34.953Z,14.15
2022-10-11T18:42:36.681Z,14.13
2022-10-11T18:45:38.236Z,14.15
2022-10-11T18:48:41.707Z,14.14
2022-10-11T18:51:45.156Z,14.15
2022-10-11T18:54:46.676Z,14.14
2022-10-11T18:57:48.265Z,14.14
2022-10-11T19:00:49.982Z,13.97
2022-10-11T19:03:54.321Z,14.09
2022-10-11T19:06:55.885Z,14.04
2022-10-11T19:09:57.448Z,14.05
2022-10-11T19:12:59.461Z,13.93
2022-10-11T19:16:09.816Z,13.93
2022-10-11T19:19:12.474Z,13.94
2022-10-11T19:22:13.985Z,13.96
2022-10-11T19:25:15.537Z,13.97
2022-10-11T19:28:17.103Z,13.98
2022-10-11T19:31:18.568Z,13.97
2022-10-11T19:34:21.296Z,13.97
2022-10-11T19:37:22.905Z,13.84
2022-10-11T19:40:24.950Z,13.89
2022-10-11T19:43:26.889Z,13.71
2022-10-11T19:49:50.418Z,13.34
2022-10-11T19:52:51.914Z,13.27
2022-10-11T19:55:55.489Z,13.19
2022-10-11T19:58:57.564Z,13.18
2022-10-11T20:01:59.071Z,13.16
2022-10-11T20:05:00.634Z,13.14
2022-10-11T20:08:02.114Z,13.17
2022-10-11T20:11:08.712Z,13.19
2022-10-11T20:14:10.261Z,13.16
2022-10-11T20:17:12.122Z,13.27
2022-10-11T20:20:14.900Z,13.28
2022-10-11T20:23:18.255Z,13.27
2022-10-11T20:26:22.805Z,13.26
2022-10-11T20:29:25.353Z,13.23
2022-10-11T20:32:27.875Z,13.24
2022-10-11T20:35:29.349Z,13.22
2022-10-11T20:38:32.253Z,13.13
2022-10-11T20:41:40.031Z,13.08
2022-10-11T20:44:43.578Z,13.12
2022-10-11T20:47:45.104Z,13.14
2022-10-11T20:50:46.608Z,13.10
2022-10-11T20:53:49.115Z,12.99
2022-10-11T20:56:50.639Z,13.00
2022-10-11T20:59:52.108Z,12.99
2022-10-11T21:02:54.161Z,12.98
2022-10-11T21:05:59.811Z,12.93
2022-10-11T21:09:01.803Z,12.97
2022-10-11T21:12:03.682Z,12.87
2022-10-11T21:15:05.674Z,12.89
2022-10-11T21:18:07.821Z,12.83
2022-10-11T21:21:12.438Z,12.70
2022-10-11T21:24:14.069Z,12.60
2022-10-11T21:27:15.524Z,12.58
2022-10-11T21:30:17.101Z,12.59
2022-10-11T21:33:18.604Z,12.58
2022-10-11T21:36:22.081Z,12.59
2022-10-11T21:39:23.615Z,12.60
2022-10-11T21:42:29.405Z,12.60
2022-10-11T21:45:31.246Z,12.61
2022-10-11T21:48:33.237Z,12.60
2022-10-11T21:51:34.759Z,12.63
2022-10-11T21:54:36.314Z,12.70
2022-10-11T21:57:37.796Z,12.78
2022-10-11T22:00:39.505Z,12.82
2022-10-11T22:03:41.032Z,12.81
2022-10-11T22:06:42.500Z,12.84
2022-10-11T22:09:44.025Z,12.88
2022-10-11T22:12:45.547Z,12.92
2022-10-11T22:15:47.173Z,12.91
2022-10-11T22:18:48.937Z,12.87
2022-10-11T22:21:50.659Z,12.87
2022-10-11T22:24:52.208Z,12.79
2022-10-11T22:27:53.676Z,12.84
2022-10-11T22:30:55.109Z,12.83
2022-10-11T22:33:58.463Z,12.87
2022-10-11T22:36:59.912Z,12.92
2022-10-11T22:40:01.780Z,12.94
2022-10-11T22:43:03.275Z,12.98
2022-10-11T22:46:05.386Z,13.00
2022-10-11T22:49:06.968Z,13.03
2022-10-11T22:52:08.507Z,13.01
2022-10-11T22:55:10.137Z,13.00
2022-10-11T22:58:11.641Z,12.97
2022-10-11T23:01:16.046Z,12.96
2022-10-11T23:04:17.663Z,12.98
2022-10-11T23:07:19.157Z,13.00
2022-10-11T23:10:20.710Z,13.00
2022-10-11T23:13:22.321Z,13.02
2022-10-11T23:16:23.758Z,13.03
2022-10-11T23:19:25.236Z,13.03
2022-10-11T23:22:26.748Z,13.04
2022-10-11T23:25:28.175Z,13.04
2022-10-11T23:28:29.976Z,13.06
2022-10-11T23:31:31.444Z,13.05
2022-10-11T23:34:33.261Z,13.04
2022-10-11T23:37:35.180Z,13.02
2022-10-11T23:40:36.914Z,13.02
2022-10-11T23:43:38.413Z,13.03
2022-10-11T23:46:39.892Z,13.01
2022-10-11T23:49:41.415Z,13.04
2022-10-11T23:52:42.860Z,13.02
2022-10-11T23:55:44.443Z,13.02
2022-10-11T23:58:46.054Z,12.99
